createdAt,value
2018-05-15T00:01:26.436Z,45.20
2018-05-15T00:04:28.499Z,42.37
2018-05-15T00:07:30.660Z,41.90
2018-05-15T00:10:32.801Z,43.53
2018-05-15T00:13:34.903Z,49.23
2018-05-15T00:16:36.972Z,47.30
2018-05-15T00:19:39.128Z,43.90
2018-05-15T00:22:41.224Z,44.17
2018-05-15T00:25:43.286Z,48.23
2018-05-15T00:28:45.303Z,47.53
2018-05-15T00:31:47.409Z,48.70
2018-05-15T00:34:50.577Z,52.30
2018-05-15T00:37:52.737Z,49.67
2018-05-15T00:40:55.049Z,54.37
2018-05-15T00:43:57.170Z,50.20
2018-05-15T00:46:59.317Z,55.23
2018-05-15T00:50:01.476Z,53.07
2018-05-15T00:53:03.511Z,55.20
2018-05-15T00:56:05.604Z,51.17
2018-05-15T00:59:07.683Z,46.83
2018-05-15T01:02:09.774Z,47.17
2018-05-15T01:05:11.906Z,50.60
2018-05-15T01:08:13.981Z,52.23
2018-05-15T01:11:16.155Z,56.77
2018-05-15T01:14:18.213Z,53.87
2018-05-15T01:17:21.207Z,54.37
2018-05-15T01:20:23.371Z,53.33
2018-05-15T01:23:25.450Z,48.80
2018-05-15T01:26:27.514Z,50.10
2018-05-15T01:29:29.599Z,54.43
2018-05-15T01:32:31.682Z,56.70
2018-05-15T01:35:33.858Z,56.60
2018-05-15T01:38:35.900Z,55.33
2018-05-15T01:41:37.976Z,58.00
2018-05-15T01:44:40.130Z,63.90
2018-05-15T01:47:42.239Z,57.03
2018-05-15T01:50:44.387Z,61.60
2018-05-15T01:53:46.449Z,61.13
2018-05-15T01:56:48.595Z,60.67
2018-05-15T01:59:51.500Z,54.83
2018-05-15T02:02:53.564Z,60.40
2018-05-15T02:05:57.705Z,54.77
2018-05-15T02:08:59.735Z,59.80
2018-05-15T02:12:01.847Z,52.60
2018-05-15T02:15:03.976Z,59.67
2018-05-15T02:18:06.044Z,61.90
2018-05-15T02:21:08.255Z,51.90
2018-05-15T02:24:10.420Z,45.77
2018-05-15T02:27:12.492Z,56.93
2018-05-15T02:30:14.457Z,50.27
2018-05-15T02:33:16.496Z,59.83
2018-05-15T02:36:18.684Z,60.37
2018-05-15T02:39:21.407Z,64.40
2018-05-15T02:42:24.039Z,55.17
2018-05-15T02:45:26.025Z,61.97
2018-05-15T02:48:28.171Z,60.93
2018-05-15T02:51:30.262Z,64.47
2018-05-15T02:54:32.296Z,58.43
2018-05-15T02:57:34.385Z,58.47
2018-05-15T03:00:36.470Z,57.60
2018-05-15T03:03:38.615Z,58.37
2018-05-15T03:06:40.692Z,65.50
2018-05-15T03:09:42.861Z,61.60
2018-05-15T03:12:44.957Z,54.97
2018-05-15T03:15:48.141Z,58.00
2018-05-15T03:18:50.231Z,57.50
2018-05-15T03:21:59.153Z,61.37
2018-05-15T03:25:01.299Z,57.33
2018-05-15T03:28:03.832Z,47.27
2018-05-15T03:31:06.404Z,52.87
2018-05-15T03:34:08.851Z,51.63
2018-05-15T03:37:11.234Z,51.23
2018-05-15T03:40:14.402Z,55.17
2018-05-15T03:43:17.947Z,48.43
2018-05-15T03:46:20.584Z,55.47
2018-05-15T03:49:22.975Z,54.70
2018-05-15T03:52:25.126Z,45.30
2018-05-15T03:55:27.177Z,58.63
2018-05-15T03:58:29.287Z,52.70
2018-05-15T04:01:42.964Z,58.27
2018-05-15T04:05:56.181Z,57.60
2018-05-15T04:08:58.318Z,52.93
2018-05-15T04:12:00.359Z,65.23
2018-05-15T04:15:02.528Z,61.13
2018-05-15T04:18:04.684Z,55.50
2018-05-15T04:21:06.656Z,49.47
2018-05-15T04:24:09.823Z,59.97
2018-05-15T04:27:11.972Z,49.73
2018-05-15T04:30:14.072Z,57.30
2018-05-15T04:33:16.299Z,54.67
2018-05-15T04:36:18.363Z,42.90
2018-05-15T04:39:20.504Z,64.37
2018-05-15T04:42:23.669Z,44.83
2018-05-15T04:45:25.817Z,44.57
2018-05-15T04:48:27.903Z,48.00
2018-05-15T04:51:29.895Z,48.33
2018-05-15T04:54:32.009Z,46.27
2018-05-15T04:57:34.059Z,43.87
2018-05-15T05:00:36.192Z,46.50
2018-05-15T05:03:38.285Z,46.53
2018-05-15T05:06:40.394Z,42.50
2018-05-15T05:09:46.350Z,40.73
2018-05-15T05:12:49.863Z,42.43
2018-05-15T05:15:53.099Z,35.90
2018-05-15T05:18:55.622Z,39.93
2018-05-15T05:21:58.124Z,37.77
2018-05-15T05:25:00.620Z,39.27
2018-05-15T05:28:03.090Z,37.87
2018-05-15T05:31:05.139Z,38.43
2018-05-15T05:34:13.159Z,38.37
2018-05-15T05:37:15.718Z,35.33
2018-05-15T05:40:18.653Z,41.07
2018-05-15T05:43:20.747Z,36.63
2018-05-15T05:46:23.382Z,39.50
2018-05-15T05:49:25.837Z,44.10
2018-05-15T05:52:28.268Z,38.77
2018-05-15T05:55:30.813Z,39.57
2018-05-15T05:58:33.299Z,40.87
2018-05-15T06:01:35.255Z,39.40
2018-05-15T06:04:37.286Z,44.27
2018-05-15T06:07:39.882Z,39.03
2018-05-15T06:10:42.392Z,37.70
2018-05-15T06:13:44.963Z,42.30
2018-05-15T06:16:47.468Z,27.10
2018-05-15T06:19:50.940Z,33.33
2018-05-15T06:22:53.438Z,23.83
2018-05-15T06:25:55.987Z,22.17
2018-05-15T06:28:59.499Z,21.13
2018-05-15T06:32:02.068Z,20.37
2018-05-15T06:35:04.487Z,20.83
2018-05-15T06:38:08.064Z,20.50
2018-05-15T06:41:10.593Z,17.37
2018-05-15T06:44:12.615Z,14.37
2018-05-15T06:47:15.107Z,20.40
2018-05-15T06:50:17.171Z,18.03
2018-05-15T06:53:19.659Z,14.33
2018-05-15T06:56:22.214Z,16.53
2018-05-15T06:59:24.563Z,18.03
2018-05-15T07:02:27.070Z,19.70
2018-05-15T07:05:29.241Z,16.97
2018-05-15T07:08:31.719Z,20.90
2018-05-15T07:11:34.294Z,15.60
2018-05-15T07:14:36.819Z,18.43
2018-05-15T07:17:39.335Z,18.93
2018-05-15T07:20:41.853Z,15.27
2018-05-15T07:23:44.429Z,21.17
2018-05-15T07:26:46.821Z,15.83
2018-05-15T07:29:50.320Z,20.10
2018-05-15T07:32:52.444Z,20.87
2018-05-15T07:35:54.907Z,13.00
2018-05-15T07:38:57.456Z,16.33
2018-05-15T07:41:59.459Z,12.53
2018-05-15T07:45:01.972Z,14.30
2018-05-15T07:48:04.508Z,13.43
2018-05-15T07:51:06.944Z,18.33
2018-05-15T07:54:09.065Z,17.43
2018-05-15T07:57:11.067Z,19.40
2018-05-15T08:00:13.587Z,13.97
2018-05-15T08:03:15.601Z,20.57
2018-05-15T08:06:18.113Z,13.03
2018-05-15T08:09:22.051Z,15.37
2018-05-15T08:12:24.113Z,17.10
2018-05-15T08:15:27.068Z,15.23
2018-05-15T08:18:29.736Z,20.40
2018-05-15T08:21:32.179Z,13.70
2018-05-15T08:24:34.724Z,18.07
2018-05-15T08:27:36.783Z,13.17
2018-05-15T08:30:39.255Z,15.77
2018-05-15T08:33:41.288Z,13.13
2018-05-15T08:36:43.835Z,12.10
2018-05-15T08:39:45.857Z,13.10
2018-05-15T08:42:48.384Z,16.60
2018-05-15T08:45:51.160Z,11.03
2018-05-15T08:48:54.415Z,13.50
2018-05-15T08:51:56.929Z,13.80
2018-05-15T08:54:59.521Z,11.67
2018-05-15T08:58:01.959Z,12.93
2018-05-15T09:01:03.992Z,11.43
2018-05-15T09:04:06.195Z,10.30
2018-05-15T09:07:08.356Z,10.77
2018-05-15T09:10:10.591Z,10.83
2018-05-15T09:13:12.780Z,8.70
2018-05-15T09:16:14.946Z,12.30
2018-05-15T09:19:17.119Z,8.77
2018-05-15T09:22:20.297Z,11.30
2018-05-15T09:25:22.474Z,8.37
2018-05-15T09:28:24.652Z,10.60
2018-05-15T09:31:26.656Z,13.27
2018-05-15T09:34:29.781Z,13.43
2018-05-15T09:37:31.850Z,9.20
2018-05-15T09:40:34.063Z,9.17
2018-05-15T09:43:45.246Z,11.63
2018-05-15T09:46:47.361Z,9.47
2018-05-15T09:49:50.911Z,10.60
2018-05-15T09:52:52.968Z,11.53
2018-05-15T09:55:55.001Z,11.87
2018-05-15T09:58:57.307Z,14.10
2018-05-15T10:01:59.597Z,10.80
2018-05-15T10:05:01.593Z,10.13
2018-05-15T10:08:03.798Z,12.63
2018-05-15T10:11:05.839Z,12.93
2018-05-15T10:14:07.884Z,7.50
2018-05-15T10:17:10.017Z,8.23
2018-05-15T10:20:12.164Z,7.90
2018-05-15T10:23:14.254Z,12.40
2018-05-15T10:26:16.438Z,7.47
2018-05-15T10:29:18.536Z,9.90
2018-05-15T10:32:20.754Z,8.57
2018-05-15T10:35:22.803Z,7.20
2018-05-15T10:38:24.804Z,8.57
2018-05-15T10:41:26.879Z,7.83
2018-05-15T10:44:28.959Z,6.53
2018-05-15T10:47:31.096Z,5.87
2018-05-15T10:50:33.149Z,8.13
2018-05-15T10:53:36.303Z,8.03
2018-05-15T10:56:38.396Z,7.63
2018-05-15T10:59:40.547Z,5.97
2018-05-15T11:02:42.449Z,8.20
2018-05-15T11:05:44.638Z,6.57
2018-05-15T11:08:47.091Z,6.57
2018-05-15T11:11:49.008Z,5.53
2018-05-15T11:14:51.997Z,5.37
2018-05-15T11:17:54.195Z,8.37
2018-05-15T11:21:07.845Z,5.37
2018-05-15T11:24:21.911Z,6.50
2018-05-15T11:27:23.953Z,6.97
2018-05-15T11:30:25.439Z,5.37
2018-05-15T11:33:27.510Z,4.20
2018-05-15T11:36:29.603Z,5.80
2018-05-15T11:39:31.810Z,5.43
2018-05-15T11:42:33.811Z,3.60
2018-05-15T11:45:35.887Z,7.13
2018-05-15T11:48:38.422Z,4.00
2018-05-15T11:51:40.559Z,5.00
2018-05-15T11:54:41.995Z,4.03
2018-05-15T11:57:45.127Z,3.90
2018-05-15T12:00:47.266Z,3.30
2018-05-15T12:03:49.412Z,5.03
2018-05-15T12:06:51.485Z,5.00
2018-05-15T12:09:53.559Z,6.10
2018-05-15T12:12:55.903Z,5.10
2018-05-15T12:15:57.913Z,3.73
2018-05-15T12:18:59.987Z,4.73
2018-05-15T12:22:02.054Z,5.00
2018-05-15T12:25:04.101Z,4.83
2018-05-15T12:28:06.285Z,2.73
2018-05-15T12:31:08.238Z,5.77
2018-05-15T12:34:10.306Z,3.73
2018-05-15T12:37:12.488Z,3.30
2018-05-15T12:40:14.595Z,4.07
2018-05-15T12:43:16.750Z,3.90
2018-05-15T12:46:18.894Z,5.07
2018-05-15T12:49:20.948Z,4.33
2018-05-15T12:52:23.040Z,8.33
2018-05-15T12:55:25.279Z,6.57
2018-05-15T12:58:28.019Z,2.90
2018-05-15T13:01:30.038Z,5.13
2018-05-15T13:04:32.128Z,4.00
2018-05-15T13:07:34.215Z,3.17
2018-05-15T13:10:37.129Z,5.73
2018-05-15T13:13:39.291Z,3.93
2018-05-15T13:16:41.416Z,3.20
2018-05-15T13:19:43.484Z,8.17
2018-05-15T13:22:45.567Z,5.20
2018-05-15T13:25:47.713Z,6.73
2018-05-15T13:28:49.887Z,4.63
2018-05-15T13:31:52.054Z,5.53
2018-05-15T13:34:54.252Z,11.80
2018-05-15T13:37:57.036Z,4.80
2018-05-15T13:40:59.210Z,5.33
2018-05-15T13:44:01.584Z,3.10
2018-05-15T13:47:03.766Z,5.40
2018-05-15T13:50:05.918Z,3.23
2018-05-15T13:53:08.109Z,6.07
2018-05-15T13:56:10.211Z,5.50
2018-05-15T13:59:12.428Z,11.83
2018-05-15T14:02:14.376Z,4.57
2018-05-15T14:05:18.495Z,3.20
2018-05-15T14:08:20.559Z,3.70
2018-05-15T14:11:23.655Z,4.37
2018-05-15T14:14:25.742Z,5.50
2018-05-15T14:17:27.925Z,5.10
2018-05-15T14:20:29.984Z,3.47
2018-05-15T14:23:32.168Z,8.00
2018-05-15T14:26:34.243Z,4.67
2018-05-15T14:29:36.372Z,2.87
2018-05-15T14:32:38.561Z,3.80
2018-05-15T14:35:41.788Z,3.53
2018-05-15T14:38:43.841Z,5.40
2018-05-15T14:41:55.415Z,7.97
2018-05-15T14:44:59.536Z,4.63
2018-05-15T14:48:01.671Z,4.20
2018-05-15T14:51:26.788Z,4.83
2018-05-15T14:54:28.876Z,4.27
2018-05-15T14:57:31.156Z,4.30
2018-05-15T15:00:34.356Z,5.97
2018-05-15T15:03:36.453Z,3.10
2018-05-15T15:06:38.605Z,7.00
2018-05-15T15:09:40.663Z,5.90
2018-05-15T15:12:42.730Z,6.77
2018-05-15T15:15:44.804Z,3.40
2018-05-15T15:18:47.910Z,4.77
2018-05-15T15:21:50.084Z,6.00
2018-05-15T15:24:52.310Z,8.00
2018-05-15T15:27:54.457Z,6.70
2018-05-15T15:30:56.580Z,5.67
2018-05-15T15:33:58.647Z,5.00
2018-05-15T15:37:00.824Z,4.43
2018-05-15T15:40:03.113Z,2.57
2018-05-15T15:43:05.055Z,2.20
2018-05-15T15:46:07.144Z,2.13
2018-05-15T15:49:09.372Z,2.63
2018-05-15T15:52:11.708Z,6.17
2018-05-15T15:55:13.728Z,4.70
2018-05-15T15:58:15.747Z,4.47
2018-05-15T16:01:19.239Z,3.90
2018-05-15T16:04:21.251Z,12.47
2018-05-15T16:07:23.373Z,7.30
2018-05-15T16:10:25.409Z,4.80
2018-05-15T16:13:27.591Z,5.60
2018-05-15T16:16:29.642Z,7.67
2018-05-15T16:19:31.700Z,4.37
2018-05-15T16:22:33.786Z,11.77
2018-05-15T16:25:35.849Z,11.80
2018-05-15T16:28:38.001Z,8.97
2018-05-15T16:31:40.078Z,4.30
2018-05-15T16:34:42.143Z,4.90
2018-05-15T16:37:44.333Z,7.40
2018-05-15T16:40:46.353Z,5.73
2018-05-15T16:43:49.439Z,8.50
2018-05-15T16:46:51.980Z,7.90
2018-05-15T16:49:54.200Z,8.13
2018-05-15T16:52:56.286Z,9.70
2018-05-15T16:55:58.411Z,8.57
2018-05-15T16:59:00.451Z,6.93
2018-05-15T17:02:02.533Z,6.30
2018-05-15T17:05:04.576Z,8.97
2018-05-15T17:08:06.726Z,10.40
2018-05-15T17:11:08.859Z,6.47
2018-05-15T17:14:12.960Z,8.10
2018-05-15T17:17:16.192Z,11.00
2018-05-15T17:20:19.030Z,7.60
2018-05-15T17:23:21.095Z,5.20
2018-05-15T17:26:23.248Z,7.37
2018-05-15T17:29:32.832Z,6.23
2018-05-15T17:32:35.011Z,4.97
2018-05-15T17:35:37.151Z,5.50
2018-05-15T17:38:41.180Z,6.53
2018-05-15T17:41:43.194Z,4.77
2018-05-15T17:44:45.397Z,7.80
2018-05-15T17:47:47.632Z,9.03
2018-05-15T17:50:50.532Z,8.03
2018-05-15T17:53:52.639Z,4.57
2018-05-15T17:56:54.881Z,4.83
2018-05-15T17:59:57.120Z,5.10
2018-05-15T18:02:59.148Z,4.67
2018-05-15T18:06:01.229Z,7.30
2018-05-15T18:09:03.800Z,5.57
2018-05-15T18:12:05.876Z,4.90
2018-05-15T18:15:08.091Z,5.50
2018-05-15T18:18:16.580Z,7.40
2018-05-15T18:21:18.761Z,6.60
2018-05-15T18:24:20.824Z,8.00
2018-05-15T18:27:22.920Z,5.83
2018-05-15T18:30:24.903Z,5.70
2018-05-15T18:33:28.208Z,6.10
2018-05-15T18:36:30.304Z,5.07
2018-05-15T18:39:32.469Z,7.30
2018-05-15T18:42:34.607Z,6.17
2018-05-15T18:45:36.714Z,4.80
2018-05-15T18:48:38.784Z,5.33
2018-05-15T18:51:40.882Z,5.37
2018-05-15T18:54:43.007Z,5.60
2018-05-15T18:57:45.272Z,4.70
2018-05-15T19:00:47.569Z,6.17
2018-05-15T19:03:49.549Z,5.27
2018-05-15T19:06:51.754Z,5.70
2018-05-15T19:09:53.807Z,7.97
2018-05-15T19:12:55.929Z,4.43
2018-05-15T19:15:57.998Z,5.53
2018-05-15T19:19:00.130Z,7.43
2018-05-15T19:22:02.292Z,7.70
2018-05-15T19:25:04.474Z,5.07
2018-05-15T19:28:06.607Z,6.67
2018-05-15T19:31:13.555Z,5.60
2018-05-15T19:34:20.281Z,5.63
2018-05-15T19:37:22.448Z,6.83
2018-05-15T19:40:25.010Z,6.47
2018-05-15T19:43:27.155Z,7.60
2018-05-15T19:46:29.251Z,5.40
2018-05-15T19:49:31.803Z,7.57
2018-05-15T19:52:33.896Z,6.87
2018-05-15T19:55:35.938Z,9.10
2018-05-15T19:58:38.092Z,5.70
2018-05-15T20:01:40.314Z,6.93
2018-05-15T20:04:45.947Z,5.93
2018-05-15T20:07:48.048Z,6.10
2018-05-15T20:10:50.170Z,9.10
2018-05-15T20:13:52.253Z,5.87
2018-05-15T20:16:54.352Z,5.43
2018-05-15T20:19:56.417Z,6.27
2018-05-15T20:22:58.615Z,7.80
2018-05-15T20:26:00.716Z,7.03
2018-05-15T20:29:02.759Z,7.90
2018-05-15T20:32:04.903Z,8.13
2018-05-15T20:35:07.037Z,6.10
2018-05-15T20:38:09.116Z,6.97
2018-05-15T20:41:11.191Z,5.90
2018-05-15T20:44:13.223Z,6.80
2018-05-15T20:47:15.315Z,9.37
2018-05-15T20:50:17.392Z,8.60
2018-05-15T20:53:20.445Z,7.93
2018-05-15T20:56:22.564Z,8.60
2018-05-15T20:59:24.607Z,7.03
2018-05-15T21:02:26.571Z,7.77
2018-05-15T21:05:28.783Z,8.73
2018-05-15T21:08:30.828Z,7.40
2018-05-15T21:11:33.511Z,6.40
2018-05-15T21:14:35.691Z,6.77
2018-05-15T21:17:37.763Z,7.20
2018-05-15T21:20:41.517Z,7.67
2018-05-15T21:23:43.644Z,6.53
2018-05-15T21:26:45.711Z,7.10
2018-05-15T21:29:47.990Z,9.03
2018-05-15T21:32:50.239Z,7.30
2018-05-15T21:35:52.315Z,8.77
2018-05-15T21:38:54.407Z,7.63
2018-05-15T21:41:56.632Z,8.67
2018-05-15T21:44:58.740Z,7.63
2018-05-15T21:48:00.816Z,7.60
2018-05-15T21:51:02.991Z,8.67
2018-05-15T21:54:04.959Z,8.23
2018-05-15T21:57:06.999Z,9.57
2018-05-15T22:00:09.224Z,8.17
2018-05-15T22:03:12.451Z,9.23
2018-05-15T22:06:14.538Z,9.50
2018-05-15T22:09:16.725Z,8.63
2018-05-15T22:12:30.274Z,9.33
2018-05-15T22:15:43.936Z,8.33
2018-05-15T22:18:57.556Z,7.70
2018-05-15T22:22:12.216Z,8.13
2018-05-15T22:25:14.192Z,10.20
2018-05-15T22:28:16.188Z,7.73
2018-05-15T22:31:18.297Z,7.97
2018-05-15T22:34:20.372Z,8.77
2018-05-15T22:37:22.525Z,8.37
2018-05-15T22:40:24.592Z,8.10
2018-05-15T22:43:26.697Z,7.67
2018-05-15T22:46:28.959Z,7.70
2018-05-15T22:49:31.131Z,9.23
2018-05-15T22:52:33.203Z,7.20
2018-05-15T22:55:36.321Z,7.30
2018-05-15T22:58:38.369Z,9.53
2018-05-15T23:01:42.246Z,7.73
2018-05-15T23:04:44.419Z,9.10
2018-05-15T23:07:46.479Z,8.40
2018-05-15T23:10:48.556Z,8.87
2018-05-15T23:13:50.604Z,11.57
2018-05-15T23:16:53.692Z,9.43
2018-05-15T23:19:55.750Z,8.10
2018-05-15T23:22:59.837Z,8.20
2018-05-15T23:26:01.847Z,9.57
2018-05-15T23:29:03.904Z,8.60
2018-05-15T23:32:05.879Z,9.43
2018-05-15T23:35:07.992Z,8.10
2018-05-15T23:38:10.012Z,11.50
2018-05-15T23:41:12.789Z,9.83
2018-05-15T23:44:14.886Z,10.53
2018-05-15T23:47:17.011Z,13.57
2018-05-15T23:50:19.107Z,8.87
2018-05-15T23:53:21.165Z,12.27
2018-05-15T23:56:23.144Z,11.87
2018-05-15T23:59:25.114Z,11.73
